Terminal Aerodrome Forecast
Issued by NWS

Home | Current Version | Previous Version | Text Only | Print | Product List | Glossary On
Versions: 1 2 3 4 5 6 7 8 9 10 11 12 13
000
FTUS45 KRIW 241700
TAFBPI
TAF
KBPI 241737Z 2418/2518 VRB05KT P6SM OVC035
     FM242000 15007KT P6SM OVC035
     FM250400 17006KT 6SM -SN OVC035
     FM250800 17008KT 3SM -SN OVC025
     FM251500 VRB04KT 4SM -SN OVC030=

USA.gov is the U.S. government's official web portal to all federal, state and local government web resources and services.